Peterborough Airport
CYPQ : now visible

Airfield :











YOU CAN JOIN US ON...

 
LOGIN :

Register | Disclaimer

   EN    FR    IT 

 









Legend :    VFR   Marginal VFR   IFR   Intensive IFR   Very Intensive IFR
Visi :
Ceiling :
>= 8 km
>= 3000ft
5 to 8 km
1000 to 3000 ft
1500m to 5 km
500 to 1000 ft
800 to 1500m
200 to 500 ft
< 800m
< 200 ft
Symbols :   Thunderstorms  Fog  Heavy snow  Heavy precipitations  Wind > 20 kt







- Airport Elevation : 628 ft
- IATA code : YPQ


CYPQ - Peterborough

CURRENT METAR :
  • 261513Z AUTO 14013KT 6SM -RA BR OVC008 12/11 A2928 RMK SLP921 DENSITY ALT 1100FT

EXPIRED METARs :
  • 261506Z AUTO 14012G18KT 5SM -RA BR OVC008 12/11 A2929 RMK SLP922 DENSITY ALT 1100FT
  • 261452Z AUTO 15010G18KT 6SM -RA BR OVC008 12/11 A2930 RMK SLP924 DENSITY ALT 1100FT
  • 261436Z AUTO 15011G21KT 5SM -RA BR OVC008 12/11 A2931 RMK SLP928 DENSITY ALT 1000FT
  • 261400Z AUTO 12011G16KT 9SM -RA OVC008 12/11 A2932 RMK SLP934 DENSITY ALT 1000FT
  • 261351Z AUTO 13008G18KT 6SM -RA BR OVC008 12/11 A2933 RMK SLP936 DENSITY ALT 1000FT
  • 261315Z AUTO VRB05KT 6SM RA BR OVC006 10/10 A2936 RMK PRESFR SLP947 DENSITY ALT 800FT
  • 261300Z AUTO 05004KT 010V110 4SM RA BR BKN006 OVC010 10/09 A2938 RMK PRESFR SLP953 DENSITY ALT 700FT
  • 261254Z AUTO 08007KT 050V140 3SM RA BR BKN006 OVC010 09/09 A2938 RMK PRESFR SLP954 DENSITY ALT 700FT

TAF AMD TAF CYPQ
Valid from the 26 at 14:00 until the 27 at 02:00 UTC


261412Z 2614/2702 12012KT 6SM -RA BR OVC008
TEMPO 2614/2618 3SM RA BR OVC003
FM261800 13015KT 11/2SM -RA BR OVC003
TEMPO 2618/2620 4SM -RA BR OVC006
FM262000 17012KT 2SM -RA BR OVC004
TEMPO 2620/2622 6SM -RA BR OVC008
BECMG 2620/2622 28020G35KT
FM262200 28020G35KT P6SM -SHRA OVC010
TEMPO 2622/2702 4SM -SHRA BR OVC008 RMK FCST BASED ON AUTO OBS. NXT FCST BY 262000Z
CZYZ FIR / North America



MET'MAP, your aeronautical weather chart ! - Copyright ORBIFLY December 2007 - Disclaimer

ORBIFLY MET'MAP TEAM :

Programming & Development : Alexandra Zaïnal
Concept & Development : Baudouin d'Aumeries
Co-Development & Prog : Marc-Olivier Méhu
Technical & hardware support : Manuel Goepfert

Contact : metmap@orbifly.com




SOURCES & CREDITS :

   NOAA       Earth
Advisory